Time,TemperatureF,DewpointF,PressureIn,WindDirection,WindDirectionDegrees,WindSpeedMPH,WindSpeedGustMPH,Humidity,HourlyPrecipIn,Conditions,Clouds,dailyrainin,SoftwareType,DateUTC
2013-02-23 09:53:00,41.0,40.0,23.05,ENE,63,7.0,26.0,96,0.05,,,0.05,VWS V13.01,2013-02-23 14:53:00,
2013-02-23 09:58:00,41.1,40.0,22.83,ENE,76,4.0,26.0,96,0.05,,,0.05,VWS V13.01,2013-02-23 14:58:00,
2013-02-23 10:03:00,41.1,40.0,23.57,ENE,69,1.0,26.0,96,0.05,,,0.05,VWS V13.01,2013-02-23 15:03:00,
2013-02-23 10:04:00,41.1,40.0,23.57,NNE,31,2.0,2.0,96,0.05,,,0.05,VWS V13.01,2013-02-23 15:04:00,
2013-02-23 10:08:00,41.2,40.2,23.57,ENE,67,0.0,6.0,96,0.05,,,0.05,VWS V13.01,2013-02-23 15:08:00,
2013-02-23 10:09:00,41.2,40.2,23.57,ESE,117,5.0,6.0,96,0.05,,,0.06,VWS V13.01,2013-02-23 15:09:00,
2013-02-23 10:13:00,41.3,40.2,23.57,ENE,76,0.0,6.0,96,0.06,,,0.06,VWS V13.01,2013-02-23 15:13:00,
2013-02-23 10:14:00,41.3,40.2,23.57,ENE,76,0.0,6.0,96,0.06,,,0.06,VWS V13.01,2013-02-23 15:14:00,
2013-02-23 10:18:00,41.3,40.2,23.57,ENE,76,0.0,6.0,96,0.06,,,0.06,VWS V13.01,2013-02-23 15:18:00,
2013-02-23 10:19:00,41.3,40.2,23.57,ENE,76,1.0,6.0,96,0.06,,,0.06,VWS V13.01,2013-02-23 15:19:00,
2013-02-23 10:23:00,41.4,40.3,23.57,ENE,69,1.0,6.0,96,0.07,,,0.07,VWS V13.01,2013-02-23 15:23:00,
2013-02-23 10:24:00,41.4,40.3,23.57,ENE,68,2.0,6.0,96,0.07,,,0.07,VWS V13.01,2013-02-23 15:24:00,
2013-02-23 10:25:00,41.4,40.3,23.57,ENE,69,0.0,6.0,96,0.07,,,0.07,VWS V13.01,2013-02-23 15:25:00,
2013-02-23 10:28:00,41.5,40.5,24.35,East,90,2.0,6.0,96,0.07,,,0.08,VWS V13.01,2013-02-23 15:28:00,
2013-02-23 10:29:00,41.5,40.5,24.35,East,90,1.0,6.0,96,0.08,,,0.08,VWS V13.01,2013-02-23 15:29:00,
2013-02-23 10:30:00,41.5,40.5,24.35,East,90,0.0,6.0,96,0.08,,,0.08,VWS V13.01,2013-02-23 15:30:00,
2013-02-23 10:34:00,41.5,40.5,24.35,East,90,1.0,6.0,96,0.08,,,0.08,VWS V13.01,2013-02-23 15:34:00,
2013-02-23 10:35:00,41.5,40.5,24.35,East,95,0.0,6.0,96,0.08,,,0.08,VWS V13.01,2013-02-23 15:35:00,
2013-02-23 10:39:00,41.5,40.5,24.17,East,95,0.0,6.0,96,0.08,,,0.08,VWS V13.01,2013-02-23 15:39:00,
2013-02-23 10:40:00,41.5,40.5,24.17,East,95,2.0,6.0,96,0.08,,,0.08,VWS V13.01,2013-02-23 15:40:00,
2013-02-23 10:44:00,41.6,40.5,24.17,East,83,3.0,7.0,96,0.08,,,0.08,VWS V13.01,2013-02-23 15:44:00,
2013-02-23 10:45:00,41.6,40.5,24.17,East,84,2.0,7.0,96,0.08,,,0.08,VWS V13.01,2013-02-23 15:45:00,
2013-02-23 10:46:00,41.6,40.5,24.17,East,84,1.0,7.0,96,0.08,,,0.08,VWS V13.01,2013-02-23 15:46:00,
2013-02-23 10:49:00,41.6,40.5,24.17,NNE,23,2.0,7.0,96,0.08,,,0.08,VWS V13.01,2013-02-23 15:49:00,
2013-02-23 10:50:00,41.6,40.5,24.17,ENE,78,5.0,7.0,96,0.08,,,0.09,VWS V13.01,2013-02-23 15:50:00,
2013-02-23 10:51:00,41.7,40.7,24.17,East,94,2.0,7.0,96,0.09,,,0.09,VWS V13.01,2013-02-23 15:51:00,
2013-02-23 10:54:00,41.7,40.7,24.17,ENE,69,3.0,7.0,96,0.09,,,0.09,VWS V13.01,2013-02-23 15:54:00,
2013-02-23 10:55:00,41.7,40.7,24.17,ENE,69,1.0,7.0,96,0.09,,,0.09,VWS V13.01,2013-02-23 15:55:00,
2013-02-23 10:56:00,41.8,40.8,24.17,ENE,78,1.0,7.0,96,0.09,,,0.09,VWS V13.01,2013-02-23 15:56:00,
2013-02-23 11:00:00,41.8,40.8,24.17,ENE,71,1.0,7.0,96,0.10,,,0.10,VWS V13.01,2013-02-23 16:00:00,
2013-02-23 11:01:00,41.9,40.8,24.17,ENE,71,0.0,7.0,96,0.10,,,0.10,VWS V13.01,2013-02-23 16:01:00,
2013-02-23 11:05:00,41.9,40.8,24.17,ENE,71,2.0,4.0,96,0.05,,,0.10,VWS V13.01,2013-02-23 16:05:00,
2013-02-23 11:07:00,42.0,40.9,24.17,ENE,71,0.0,4.0,96,0.05,,,0.10,VWS V13.01,2013-02-23 16:07:00,
2013-02-23 11:10:00,42.1,41.0,24.17,ENE,71,0.0,4.0,96,0.05,,,0.10,VWS V13.01,2013-02-23 16:10:00,
2013-02-23 11:12:00,42.1,41.0,24.17,ENE,71,0.0,4.0,96,0.05,,,0.10,VWS V13.01,2013-02-23 16:12:00,
2013-02-23 11:15:00,42.2,41.1,24.17,ENE,71,0.0,4.0,96,0.06,,,0.11,VWS V13.01,2013-02-23 16:15:00,
2013-02-23 11:17:00,42.3,41.2,24.17,ENE,71,0.0,4.0,96,0.06,,,0.11,VWS V13.01,2013-02-23 16:17:00,
2013-02-23 11:20:00,42.3,41.2,24.17,ENE,71,0.0,4.0,96,0.06,,,0.11,VWS V13.01,2013-02-23 16:20:00,
2013-02-23 11:22:00,42.4,41.3,24.17,ENE,71,2.0,4.0,96,0.06,,,0.11,VWS V13.01,2013-02-23 16:22:00,
2013-02-23 11:25:00,42.5,41.4,24.17,ENE,71,0.0,4.0,96,0.06,,,0.11,VWS V13.01,2013-02-23 16:25:00,
2013-02-23 11:27:00,42.5,41.4,24.17,ENE,71,0.0,4.0,96,0.06,,,0.11,VWS V13.01,2013-02-23 16:27:00,
2013-02-23 11:30:00,42.5,41.4,24.17,ENE,71,0.0,4.0,96,0.06,,,0.11,VWS V13.01,2013-02-23 16:30:00,
2013-02-23 11:32:00,42.6,41.5,24.17,ENE,71,0.0,4.0,96,0.06,,,0.11,VWS V13.01,2013-02-23 16:32:00,
2013-02-23 11:35:00,42.6,41.5,24.17,ENE,71,2.0,4.0,96,0.06,,,0.12,VWS V13.01,2013-02-23 16:35:00,
2013-02-23 11:37:00,42.7,41.6,24.17,ENE,71,1.0,4.0,96,0.07,,,0.12,VWS V13.01,2013-02-23 16:37:00,
2013-02-23 18:08:00,41.6,40.3,22.29,NE,50,2.0,4.0,95,0.29,,,0.34,VWS V13.01,2013-02-23 23:08:00,
2013-02-23 18:13:00,41.3,40.0,22.29,North,355,3.0,5.0,95,0.29,,,0.34,VWS V13.01,2013-02-23 23:13:00,
2013-02-23 18:18:00,41.1,39.8,22.54,NNE,28,7.0,7.0,95,0.29,,,0.34,VWS V13.01,2013-02-23 23:18:00,
2013-02-23 18:23:00,41.0,41.0,22.54,North,360,4.0,8.0,100,0.30,,,0.35,VWS V13.01,2013-02-23 23:23:00,
2013-02-23 18:28:00,40.8,39.5,22.54,NNE,13,5.0,8.0,95,0.30,,,0.35,VWS V13.01,2013-02-23 23:28:00,
2013-02-23 18:29:00,40.7,39.4,22.54,NNE,13,4.0,8.0,95,0.30,,,0.35,VWS V13.01,2013-02-23 23:29:00,
2013-02-23 18:33:00,40.6,39.3,23.05,NNE,18,2.0,8.0,95,0.30,,,0.35,VWS V13.01,2013-02-23 23:33:00,
2013-02-23 18:34:00,40.5,39.2,23.05,NNE,18,1.0,8.0,95,0.30,,,0.35,VWS V13.01,2013-02-23 23:34:00,
2013-02-23 18:38:00,40.3,39.0,24.35,NNE,24,2.0,8.0,95,0.30,,,0.35,VWS V13.01,2013-02-23 23:38:00,
2013-02-23 18:39:00,40.3,39.0,24.35,NNE,24,1.0,8.0,95,0.30,,,0.35,VWS V13.01,2013-02-23 23:39:00,
2013-02-23 18:40:00,40.3,39.0,24.35,NNE,24,0.0,8.0,95,0.30,,,0.35,VWS V13.01,2013-02-23 23:40:00,
2013-02-23 18:43:00,40.2,38.9,24.35,NNE,24,0.0,8.0,95,0.30,,,0.35,VWS V13.01,2013-02-23 23:43:00,
2013-02-23 18:44:00,40.1,38.8,24.35,NNE,24,0.0,8.0,95,0.30,,,0.35,VWS V13.01,2013-02-23 23:44:00,
2013-02-23 18:45:00,40.1,38.8,24.35,NNE,24,0.0,8.0,95,0.30,,,0.35,VWS V13.01,2013-02-23 23:45:00,
2013-02-23 18:49:00,40.0,38.7,24.35,NNE,32,0.0,8.0,95,0.30,,,0.35,VWS V13.01,2013-02-23 23:49:00,
2013-02-23 18:50:00,40.0,38.7,24.17,NNE,32,2.0,8.0,95,0.30,,,0.35,VWS V13.01,2013-02-23 23:50:00,
2013-02-23 18:54:00,39.8,38.5,24.17,NNE,20,5.0,8.0,95,0.31,,,0.36,VWS V13.01,2013-02-23 23:54:00,
2013-02-23 18:55:00,39.7,38.4,24.17,NNE,21,5.0,8.0,95,0.31,,,0.36,VWS V13.01,2013-02-23 23:55:00,
2013-02-23 18:59:00,39.6,38.3,24.17,NE,56,5.0,8.0,95,0.31,,,0.36,VWS V13.01,2013-02-23 23:59:00,
2013-02-23 19:00:00,39.5,38.2,24.17,NNE,13,4.0,9.0,95,0.31,,,0.36,VWS V13.01,2013-02-24 00:00:00,
2013-02-23 19:04:00,39.4,38.1,24.17,NNE,29,2.0,5.0,95,0.31,,,0.36,VWS V13.01,2013-02-24 00:04:00,
2013-02-23 19:05:00,39.3,38.0,24.17,NNE,30,0.0,5.0,95,0.26,,,0.36,VWS V13.01,2013-02-24 00:05:00,
2013-02-23 19:06:00,39.3,38.0,24.17,North,5,2.0,5.0,95,0.26,,,0.36,VWS V13.01,2013-02-24 00:06:00,
2013-02-23 19:09:00,39.2,37.9,24.17,NNE,19,3.0,5.0,95,0.26,,,0.36,VWS V13.01,2013-02-24 00:09:00,
2013-02-23 19:10:00,39.2,37.9,24.17,NNE,25,2.0,5.0,95,0.26,,,0.36,VWS V13.01,2013-02-24 00:10:00,